Terminal Aerodrome Forecast
Issued by NWS

Home | Current Version | Previous Version | Text Only | Print | Product List | Glossary On
Versions: 1 2 3 4 5 6 7 8 9 10 11 12 13 14 15
000
FTUS44 KLZK 280300 AAA
TAFBPK
TAF AMD
KBPK 280304Z 2803/2824 34008KT P6SM SCT008 OVC025
      TEMPO 2803/2807 4SM -DZ BR OVC008
     FM281600 VRB04KT P6SM SCT020 BKN070=

USA.gov is the U.S. government's official web portal to all federal, state and local government web resources and services.